Time;durP1;ratioP1;P1;durP2;ratioP2;P2;SDS_P1;SDS_P2;PMS_P1;PMS_P2;Temp;Humidity;BMP_temperature;BMP_pressure;BME280_temperature;BME280_humidity;BME280_pressure;Samples;Min_cycle;Max_cycle;Signal;HPM_P1;HPM_P2
2022/04/28 00:01:07;;;;;;;7.87;5.50;;;;;;;13.36;58.33;101492.78;5041476;28;20275;-66
2022/04/28 00:03:35;;;;;;;9.77;6.03;;;;;;;13.35;58.21;101491.09;5042506;28;20713;-67
2022/04/28 00:06:03;;;;;;;9.80;5.63;;;;;;;13.35;58.54;101488.44;5043983;28;20317;-67
2022/04/28 00:08:32;;;;;;;10.63;5.83;;;;;;;13.35;58.24;101496.41;5042914;28;20217;-67
2022/04/28 00:11:00;;;;;;;8.43;5.63;;;;;;;13.36;58.12;101498.09;5043215;28;20238;-67
2022/04/28 00:13:28;;;;;;;6.97;5.60;;;;;;;13.33;58.25;101499.22;5041654;28;20225;-67
2022/04/28 00:15:56;;;;;;;9.27;5.97;;;;;;;13.26;58.43;101491.94;5041091;28;20266;-67
2022/04/28 00:18:24;;;;;;;7.33;5.73;;;;;;;13.28;58.42;101495.31;5041047;28;20581;-67
2022/04/28 00:20:51;;;;;;;8.33;5.80;;;;;;;13.22;58.50;101495.84;5044081;28;20205;-67
2022/04/28 00:23:19;;;;;;;7.87;5.37;;;;;;;13.18;58.54;101498.81;5042880;28;20752;-66
2022/04/28 00:25:48;;;;;;;9.60;6.13;;;;;;;13.14;58.79;101500.06;5044524;28;20312;-66
2022/04/28 00:28:20;;;;;;;9.17;5.43;;;;;;;13.18;58.87;101492.63;5041059;28;20202;-66
2022/04/28 00:30:48;;;;;;;10.13;5.90;;;;;;;13.21;58.50;101488.84;5040263;28;20228;-66
2022/04/28 00:33:16;;;;;;;11.67;5.93;;;;;;;13.21;58.62;101488.84;5041156;28;20549;-67
2022/04/28 00:35:45;;;;;;;8.97;5.63;;;;;;;13.19;58.57;101497.78;5041051;28;20726;-66
2022/04/28 00:38:13;;;;;;;10.43;5.43;;;;;;;13.12;58.68;101494.00;5040989;28;20274;-66
2022/04/28 00:40:44;;;;;;;8.23;6.10;;;;;;;13.09;58.66;101504.09;5040882;28;20218;-66
2022/04/28 00:43:26;;;;;;;8.10;6.07;;;;;;;13.08;58.28;101495.25;5040574;28;20311;-67
2022/04/28 00:45:54;;;;;;;9.97;6.97;;;;;;;13.03;58.99;101507.28;5041450;28;20218;-67
2022/04/28 00:51:31;;;;;;;8.90;6.17;;;;;;;13.01;58.39;101504.78;4978891;28;20226;-67
2022/04/28 00:54:06;;;;;;;7.70;5.67;;;;;;;13.04;58.20;101504.50;4981277;28;20698;-67
2022/04/28 00:56:33;;;;;;;7.80;6.17;;;;;;;13.02;58.05;101506.44;5010287;28;20294;-68
2022/04/28 00:59:10;;;;;;;9.47;6.03;;;;;;;13.01;57.68;101504.78;5042055;28;20689;-65
2022/04/28 01:01:37;;;;;;;9.03;5.80;;;;;;;13.01;57.49;101509.28;5040782;28;20214;-66
2022/04/28 01:04:10;;;;;;;8.10;5.83;;;;;;;13.01;57.78;101502.13;5042073;28;20573;-67
2022/04/28 01:06:42;;;;;;;8.47;6.07;;;;;;;13.01;57.71;101507.47;5041075;28;20303;-67
2022/04/28 01:09:10;;;;;;;9.63;5.87;;;;;;;13.03;57.47;101508.13;5041016;28;20242;-67
2022/04/28 01:11:39;;;;;;;9.83;6.07;;;;;;;13.07;57.72;101511.38;5043065;28;20232;-67
2022/04/28 01:14:08;;;;;;;8.33;6.03;;;;;;;12.99;57.88;101511.22;5042278;28;20223;-66
2022/04/28 01:16:36;;;;;;;7.13;5.50;;;;;;;12.89;57.95;101510.38;5041768;28;20235;-67
2022/04/28 01:19:04;;;;;;;8.27;5.90;;;;;;;12.85;57.73;101509.78;5041819;28;20216;-67
2022/04/28 01:21:37;;;;;;;8.17;5.97;;;;;;;12.83;57.70;101509.13;5041301;28;20291;-66
2022/04/28 01:24:14;;;;;;;8.93;5.40;;;;;;;12.81;57.73;101519.03;5041559;28;20261;-66
2022/04/28 01:26:47;;;;;;;9.43;6.57;;;;;;;12.82;57.69;101510.09;5043087;28;20271;-66
2022/04/28 01:29:15;;;;;;;8.00;5.43;;;;;;;12.81;57.56;101509.25;5040637;28;20208;-67
2022/04/28 01:31:43;;;;;;;8.27;5.50;;;;;;;12.82;57.48;101510.09;5043376;28;20323;-66
2022/04/28 01:34:11;;;;;;;9.37;5.73;;;;;;;12.75;57.72;101512.44;5042540;28;20602;-66
2022/04/28 01:36:40;;;;;;;8.97;5.87;;;;;;;12.73;57.48;101516.22;5040789;28;20666;-67
2022/04/28 01:39:08;;;;;;;9.73;5.90;;;;;;;12.74;57.63;101520.56;5043137;28;20214;-67
2022/04/28 01:41:36;;;;;;;9.37;6.40;;;;;;;12.73;57.64;101521.56;5043232;28;20727;-67
2022/04/28 01:44:03;;;;;;;9.83;6.60;;;;;;;12.69;57.78;101520.97;5042930;28;20568;-67
2022/04/28 01:46:32;;;;;;;10.30;6.93;;;;;;;12.69;58.10;101520.13;5039591;28;20671;-66
2022/04/28 01:49:00;;;;;;;9.67;7.03;;;;;;;12.72;58.08;101518.03;5041963;28;20293;-66
2022/04/28 01:57:00;;;;;;;11.37;7.33;;;;;;;12.64;58.44;101522.38;5040133;28;20657;-67
2022/04/28 01:59:27;;;;;;;11.23;7.00;;;;;;;12.61;58.77;101525.28;5040322;28;20208;-66
2022/04/28 02:01:55;;;;;;;9.70;6.47;;;;;;;12.60;58.72;101529.78;5042712;28;20238;-66
2022/04/28 02:04:23;;;;;;;11.77;7.20;;;;;;;12.61;59.15;101523.47;5043901;28;20223;-66
2022/04/28 02:06:51;;;;;;;10.93;6.27;;;;;;;12.57;59.11;101521.22;5044885;28;20239;-66
2022/04/28 02:09:20;;;;;;;12.07;7.67;;;;;;;12.53;59.18;101525.97;5045170;28;20230;-66
2022/04/28 02:11:48;;;;;;;10.43;6.33;;;;;;;12.53;59.34;101525.97;5047073;28;20758;-66
2022/04/28 02:14:16;;;;;;;10.73;7.23;;;;;;;12.54;59.53;101527.66;5047870;28;20311;-66
2022/04/28 02:16:43;;;;;;;9.40;6.33;;;;;;;12.51;59.84;101529.72;5042932;28;20208;-66
2022/04/28 02:19:11;;;;;;;8.77;6.60;;;;;;;12.48;60.13;101530.88;5046559;28;20212;-66
2022/04/28 02:21:39;;;;;;;10.70;7.00;;;;;;;12.52;60.06;101526.09;5045703;28;20307;-66
2022/04/28 02:24:07;;;;;;;10.03;7.40;;;;;;;12.47;60.25;101531.00;5049265;28;20219;-66
2022/04/28 02:26:36;;;;;;;12.37;7.57;;;;;;;12.43;60.30;101522.44;5045687;28;20213;-66
2022/04/28 02:29:04;;;;;;;10.67;6.90;;;;;;;12.43;60.39;101536.56;5042541;28;20589;-66
2022/04/28 02:31:32;;;;;;;9.63;6.37;;;;;;;12.44;60.60;101532.94;5045804;28;20252;-66
2022/04/28 02:34:00;;;;;;;12.70;7.30;;;;;;;12.41;60.83;101530.53;5043808;28;20295;-66
2022/04/28 02:36:28;;;;;;;13.30;7.20;;;;;;;12.42;60.85;101528.72;5042091;28;20574;-67
2022/04/28 02:38:55;;;;;;;12.27;7.10;;;;;;;12.43;60.89;101525.94;5045362;28;20242;-67
2022/04/28 02:41:23;;;;;;;9.63;6.67;;;;;;;12.42;61.10;101529.56;5043138;28;20258;-67
2022/04/28 02:43:53;;;;;;;13.33;7.33;;;;;;;12.43;61.04;101533.06;5044576;28;20291;-67
2022/04/28 02:46:20;;;;;;;9.23;6.80;;;;;;;12.42;61.23;101537.56;5042851;28;20531;-67
2022/04/28 02:48:49;;;;;;;9.23;6.77;;;;;;;12.34;61.25;101529.41;5041292;28;20248;-67
2022/04/28 02:51:18;;;;;;;10.83;7.43;;;;;;;12.31;61.32;101536.81;5046577;28;20552;-67
2022/04/28 02:53:45;;;;;;;11.47;7.17;;;;;;;12.28;61.59;101529.94;5048319;28;20338;-67
2022/04/28 02:56:13;;;;;;;11.27;7.77;;;;;;;12.30;61.58;101535.13;5048999;28;20212;-67
2022/04/28 02:58:41;;;;;;;13.90;8.03;;;;;;;12.31;61.54;101540.28;5046879;28;20262;-67
2022/04/28 03:01:10;;;;;;;11.13;6.80;;;;;;;12.30;61.66;101535.97;5044912;28;20294;-68
2022/04/28 03:03:38;;;;;;;14.27;7.37;;;;;;;12.30;61.61;101540.44;5042416;28;20566;-67
2022/04/28 03:11:33;;;;;;;10.80;7.97;;;;;;;12.22;62.01;101543.78;5045063;28;20570;-67
2022/04/28 03:14:01;;;;;;;9.40;7.10;;;;;;;12.21;62.08;101539.44;5048279;28;20209;-67
2022/04/28 03:16:29;;;;;;;9.93;7.40;;;;;;;12.18;62.18;101545.00;5036119;28;20240;-67
2022/04/28 03:18:57;;;;;;;11.60;7.27;;;;;;;12.19;62.44;101538.72;5043882;28;20208;-67
2022/04/28 03:21:25;;;;;;;12.43;8.03;;;;;;;12.18;62.41;101541.50;5041824;28;20617;-67
2022/04/28 03:23:53;;;;;;;10.27;7.47;;;;;;;12.17;62.28;101543.31;5043869;28;20226;-67
2022/04/28 03:26:21;;;;;;;11.20;7.67;;;;;;;12.12;62.82;101542.88;5043005;28;20215;-67
2022/04/28 03:28:49;;;;;;;12.43;8.17;;;;;;;12.10;62.79;101543.97;5041881;28;20572;-67
2022/04/28 03:31:16;;;;;;;11.07;8.00;;;;;;;12.10;62.75;101550.16;5047480;28;20645;-68
2022/04/28 03:33:46;;;;;;;11.57;8.27;;;;;;;12.10;63.10;101544.81;5047653;28;20273;-67
2022/04/28 03:38:55;;;;;;;9.60;7.57;;;;;;;12.06;63.22;101549.56;5046496;28;20210;-67
2022/04/28 03:41:24;;;;;;;12.43;8.37;;;;;;;12.05;63.18;101553.19;5045494;28;20204;-67
2022/04/28 03:43:52;;;;;;;12.07;8.40;;;;;;;12.09;63.14;101548.47;5049388;28;20253;-67
2022/04/28 03:46:19;;;;;;;12.93;8.30;;;;;;;12.11;63.00;101551.00;5041636;28;20215;-67
2022/04/28 03:48:49;;;;;;;11.87;8.53;;;;;;;12.06;63.16;101548.72;5047856;28;20254;-67
2022/04/28 03:51:17;;;;;;;13.73;8.57;;;;;;;12.00;63.40;101554.56;5044060;28;20231;-67
2022/04/28 03:53:45;;;;;;;13.53;8.70;;;;;;;11.97;63.55;101557.47;5045987;28;20316;-66
2022/04/28 03:56:12;;;;;;;11.10;8.37;;;;;;;11.98;63.56;101556.50;5041130;28;20211;-66
2022/04/28 03:58:43;;;;;;;11.70;8.43;;;;;;;12.02;63.45;101565.91;5046543;28;20207;-66
2022/04/28 04:01:13;;;;;;;11.13;8.10;;;;;;;11.99;63.54;101553.72;5046608;28;20216;-66
2022/04/28 04:03:41;;;;;;;12.47;8.87;;;;;;;11.94;63.51;101555.09;5043227;28;20205;-66
2022/04/28 04:06:10;;;;;;;15.53;9.10;;;;;;;11.92;63.82;101557.88;5042291;28;20208;-66
2022/04/28 04:08:39;;;;;;;15.30;9.80;;;;;;;11.98;63.75;101572.44;5042112;28;20655;-66
2022/04/28 04:11:10;;;;;;;13.13;9.20;;;;;;;11.93;64.03;101564.03;5040567;28;20295;-66
2022/04/28 04:13:38;;;;;;;13.70;9.60;;;;;;;11.93;64.09;101564.03;5042180;28;20783;-66
2022/04/28 04:16:06;;;;;;;13.67;9.17;;;;;;;11.86;64.29;101569.03;5039940;28;20204;-66
2022/04/28 04:18:34;;;;;;;11.33;8.50;;;;;;;11.82;64.69;101564.09;5039097;28;20295;-66
2022/04/28 04:21:02;;;;;;;12.30;9.13;;;;;;;11.84;64.70;101575.44;5042527;28;20212;-66
2022/04/28 04:23:31;;;;;;;13.40;8.77;;;;;;;11.83;64.71;101573.75;5045414;28;20623;-66
2022/04/28 04:25:59;;;;;;;12.47;8.10;;;;;;;11.81;64.40;101575.69;5041117;28;20207;-66
2022/04/28 04:28:26;;;;;;;13.53;9.43;;;;;;;11.83;64.29;101579.91;5040122;28;20306;-66
2022/04/28 04:33:39;;;;;;;12.87;8.73;;;;;;;11.84;64.30;101586.06;5037446;28;20235;-66
2022/04/28 04:36:07;;;;;;;18.03;10.00;;;;;;;11.87;64.41;101591.16;5041340;28;20259;-66
2022/04/28 04:38:36;;;;;;;11.87;9.20;;;;;;;11.92;64.18;101588.94;5040062;28;20294;-67
2022/04/28 04:41:05;;;;;;;14.13;9.83;;;;;;;11.95;64.08;101584.22;5041395;28;20655;-66
2022/04/28 04:43:33;;;;;;;14.50;10.17;;;;;;;12.01;63.97;101588.16;5041572;28;20204;-66
2022/04/28 04:46:00;;;;;;;14.60;9.73;;;;;;;11.96;64.15;101596.50;5041224;28;20208;-66
2022/04/28 04:48:28;;;;;;;13.63;9.47;;;;;;;11.92;64.44;101588.94;5034484;28;20272;-66
2022/04/28 04:50:56;;;;;;;16.53;10.93;;;;;;;11.91;64.37;101592.56;5041522;28;20320;-66
2022/04/28 04:53:24;;;;;;;11.70;9.50;;;;;;;11.89;64.41;101594.50;5038756;28;20316;-66
2022/04/28 04:55:53;;;;;;;16.43;10.73;;;;;;;11.94;64.47;101594.97;5038799;28;20614;-66
2022/04/28 04:58:21;;;;;;;14.73;10.13;;;;;;;11.95;64.40;101601.97;5040319;28;20594;-66
2022/04/28 05:00:49;;;;;;;14.77;10.50;;;;;;;12.01;64.25;101604.09;5038276;28;20322;-66
2022/04/28 05:03:17;;;;;;;13.23;10.27;;;;;;;12.04;64.20;101606.50;5041229;28;21183;-66
2022/04/28 05:05:45;;;;;;;14.90;10.17;;;;;;;12.04;64.29;101614.50;5044134;28;20210;-66
2022/04/28 05:08:14;;;;;;;13.07;9.93;;;;;;;12.11;64.21;101609.50;5042208;28;20211;-65
2022/04/28 05:10:42;;;;;;;14.00;10.13;;;;;;;12.15;63.95;101617.06;5043947;28;20214;-65
2022/04/28 05:13:11;;;;;;;18.87;11.00;;;;;;;12.12;64.41;101620.00;5042151;28;20329;-66
2022/04/28 05:15:39;;;;;;;15.97;10.30;;;;;;;12.07;64.52;101620.38;5036941;28;20200;-66
2022/04/28 05:18:06;;;;;;;13.60;10.37;;;;;;;12.10;64.36;101618.44;5041392;28;20204;-66
2022/04/28 05:20:34;;;;;;;16.27;10.40;;;;;;;12.17;64.17;101624.91;5040886;28;20567;-65
2022/04/28 05:23:02;;;;;;;14.47;10.70;;;;;;;12.17;64.37;101628.41;5040965;28;20196;-65
2022/04/28 05:25:30;;;;;;;19.67;10.67;;;;;;;12.19;64.27;101634.44;5042843;28;20228;-65
2022/04/28 05:27:58;;;;;;;18.40;11.17;;;;;;;12.22;64.16;101628.88;5043807;28;20803;-70
2022/04/28 05:30:27;;;;;;;16.23;10.90;;;;;;;12.31;64.07;101632.56;5041972;28;20300;-70
2022/04/28 05:32:55;;;;;;;14.27;10.63;;;;;;;12.39;63.86;101636.25;5037895;28;20327;-70
2022/04/28 05:35:22;;;;;;;18.73;10.43;;;;;;;12.48;63.45;101644.41;5041902;28;20305;-70
2022/04/28 05:37:50;;;;;;;14.67;10.00;;;;;;;12.53;63.57;101639.53;5042516;28;20216;-71
2022/04/28 05:40:18;;;;;;;14.37;10.50;;;;;;;12.55;63.51;101640.25;5044124;28;20299;-70
2022/04/28 05:45:46;;;;;;;14.03;9.40;;;;;;;12.61;63.76;101645.88;5052508;28;20291;-70
2022/04/28 05:48:15;;;;;;;15.03;10.13;;;;;;;12.69;63.11;101645.22;5049861;28;20231;-71
2022/04/28 05:50:44;;;;;;;16.67;10.23;;;;;;;12.74;62.80;101651.00;5050224;28;20299;-71
2022/04/28 05:53:12;;;;;;;17.93;8.83;;;;;;;12.79;62.93;101654.94;5053093;28;20638;-71
2022/04/28 05:55:40;;;;;;;15.17;9.50;;;;;;;12.82;62.77;101656.50;5052042;28;20706;-70
2022/04/28 05:58:08;;;;;;;11.73;9.03;;;;;;;12.86;62.80;101655.22;5049490;28;20212;-71
2022/04/28 06:00:36;;;;;;;12.97;8.90;;;;;;;12.86;62.77;101663.22;5050614;28;20224;-71
2022/04/28 06:03:06;;;;;;;13.57;9.23;;;;;;;12.93;62.50;101667.03;5047589;28;20304;-71
2022/04/28 06:05:34;;;;;;;14.00;9.10;;;;;;;12.99;62.83;101671.84;5051888;28;20205;-71
2022/04/28 06:08:02;;;;;;;11.87;8.97;;;;;;;13.03;63.07;101667.91;5056108;28;20281;-71
2022/04/28 06:10:29;;;;;;;16.40;9.23;;;;;;;13.07;62.94;101673.81;5050511;28;20218;-71
2022/04/28 06:12:57;;;;;;;12.70;9.23;;;;;;;13.13;62.59;101679.47;5048620;28;20366;-70
2022/04/28 06:15:25;;;;;;;11.77;9.37;;;;;;;13.19;62.78;101676.25;5052726;28;20212;-70
2022/04/28 06:17:58;;;;;;;15.57;9.90;;;;;;;13.23;62.75;101681.31;5045957;28;20683;-70
2022/04/28 06:20:28;;;;;;;12.90;9.63;;;;;;;13.29;62.36;101680.75;5046835;28;20281;-70
2022/04/28 06:22:56;;;;;;;15.60;9.97;;;;;;;13.35;62.49;101686.41;5046947;28;20215;-70
2022/04/28 06:25:24;;;;;;;13.43;10.03;;;;;;;13.40;62.15;101681.50;5052261;28;20204;-70
2022/04/28 06:27:52;;;;;;;11.60;8.97;;;;;;;13.48;62.00;101688.81;5047574;28;20565;-70
2022/04/28 06:30:20;;;;;;;13.40;9.40;;;;;;;13.48;62.00;101683.47;5054700;28;20314;-70
2022/04/28 06:32:48;;;;;;;13.30;10.27;;;;;;;13.52;62.45;101685.75;5046587;28;20210;-70
2022/04/28 06:35:15;;;;;;;13.97;9.20;;;;;;;13.57;61.76;101693.31;5046374;28;20672;-70
2022/04/28 06:37:50;;;;;;;15.57;10.13;;;;;;;13.59;62.13;101688.69;5043025;28;20662;-71
2022/04/28 06:40:17;;;;;;;15.10;10.63;;;;;;;13.63;62.09;101692.78;5044459;28;20303;-70
2022/04/28 06:42:49;;;;;;;18.10;10.70;;;;;;;13.65;62.07;101696.13;5046736;28;20750;-70
2022/04/28 06:45:17;;;;;;;13.70;9.83;;;;;;;13.74;61.65;101700.63;5050401;28;20207;-70
2022/04/28 06:47:45;;;;;;;15.03;10.20;;;;;;;13.71;62.28;101695.59;5045031;28;20239;-70
2022/04/28 06:50:13;;;;;;;17.30;10.33;;;;;;;13.76;61.82;101703.16;5048956;28;20214;-71
2022/04/28 06:52:48;;;;;;;17.57;11.03;;;;;;;13.82;62.17;101698.09;5048282;28;20256;-70
2022/04/28 06:55:16;;;;;;;14.63;10.67;;;;;;;13.83;62.27;101696.28;5047717;28;20318;-70
2022/04/28 06:57:43;;;;;;;15.67;10.63;;;;;;;13.88;61.44;101702.91;5047143;28;20216;-70
2022/04/28 07:00:12;;;;;;;15.10;10.57;;;;;;;13.98;60.78;101697.56;5048142;28;20214;-71
2022/04/28 07:02:40;;;;;;;12.87;9.97;;;;;;;14.01;60.73;101693.75;5052747;28;20290;-71
2022/04/28 07:05:08;;;;;;;16.13;11.10;;;;;;;14.09;60.31;101694.75;5047173;28;20216;-70
2022/04/28 07:07:36;;;;;;;19.83;10.83;;;;;;;14.15;59.81;101698.69;5046633;28;20208;-71
2022/04/28 07:10:06;;;;;;;15.87;11.60;;;;;;;14.22;60.51;101708.66;5047673;28;20309;-71
2022/04/28 07:12:34;;;;;;;15.90;10.70;;;;;;;14.26;60.15;101706.53;5043375;28;20211;-70
2022/04/28 07:15:02;;;;;;;18.00;10.23;;;;;;;14.31;59.79;101699.78;5050739;28;20667;-71
2022/04/28 07:17:29;;;;;;;15.77;11.00;;;;;;;14.38;59.46;101709.88;5049755;28;20222;-71
2022/04/28 07:19:57;;;;;;;13.07;10.80;;;;;;;14.43;58.68;101703.16;5045127;28;20298;-70
2022/04/28 07:22:25;;;;;;;13.80;9.73;;;;;;;14.47;59.35;101703.72;5047787;28;20638;-70
2022/04/28 07:24:53;;;;;;;14.27;10.20;;;;;;;14.49;59.15;101707.09;5046694;28;20215;-71
2022/04/28 07:27:24;;;;;;;16.27;10.37;;;;;;;14.52;58.84;101702.28;5048238;28;20282;-71
2022/04/28 07:29:51;;;;;;;13.53;10.77;;;;;;;14.55;59.50;101706.50;5047309;28;20387;-70
2022/04/28 07:32:19;;;;;;;17.27;10.87;;;;;;;14.61;58.23;101714.78;5048102;28;20306;-71
2022/04/28 07:34:48;;;;;;;12.47;9.57;;;;;;;14.66;58.12;101723.22;5044049;28;20540;-71
2022/04/28 07:37:21;;;;;;;15.60;10.57;;;;;;;14.74;57.88;101714.47;5048314;28;20295;-71
2022/04/28 07:39:51;;;;;;;14.03;10.07;;;;;;;14.81;57.97;101714.72;5044549;28;20243;-71
2022/04/28 07:42:19;;;;;;;11.97;9.77;;;;;;;14.88;58.24;101716.66;5050787;28;20584;-71
2022/04/28 07:44:48;;;;;;;18.47;10.40;;;;;;;14.96;58.63;101714.09;5045848;28;20304;-70
2022/04/28 07:47:17;;;;;;;15.93;10.90;;;;;;;15.02;59.34;101720.72;5044292;28;20330;-71
2022/04/28 07:49:44;;;;;;;18.13;10.80;;;;;;;15.07;58.12;101723.78;5048059;28;20217;-71
2022/04/28 07:52:12;;;;;;;13.63;8.70;;;;;;;15.16;57.58;101725.56;5047552;28;20210;-70
2022/04/28 07:54:44;;;;;;;14.60;10.33;;;;;;;15.23;58.15;101728.47;5047587;28;20633;-70
2022/04/28 07:57:12;;;;;;;11.57;8.67;;;;;;;15.30;57.96;101726.94;5053617;28;20625;-70
2022/04/28 07:59:40;;;;;;;14.83;10.63;;;;;;;15.37;57.29;101728.84;5047635;28;20295;-71
2022/04/28 08:02:11;;;;;;;12.50;9.47;;;;;;;15.48;57.20;101732.31;5046794;28;20668;-69
2022/04/28 08:04:39;;;;;;;14.03;9.47;;;;;;;15.60;58.09;101731.13;5045320;28;20250;-71
2022/04/28 08:07:07;;;;;;;13.13;9.10;;;;;;;15.70;57.51;101729.25;5047460;28;20212;-71
2022/04/28 08:09:35;;;;;;;13.27;9.63;;;;;;;15.80;56.70;101738.03;5043931;28;20204;-70
2022/04/28 08:12:06;;;;;;;14.17;9.33;;;;;;;15.88;55.57;101735.44;5047596;28;20205;-70
2022/04/28 08:14:34;;;;;;;11.33;9.23;;;;;;;15.96;56.50;101732.84;5045770;28;20318;-71
2022/04/28 08:17:02;;;;;;;13.90;10.00;;;;;;;16.09;56.56;101733.34;5048747;28;20200;-70
2022/04/28 08:19:32;;;;;;;16.73;9.40;;;;;;;16.21;56.25;101725.03;5049776;28;20378;-70
2022/04/28 08:22:05;;;;;;;12.03;8.93;;;;;;;16.38;56.09;101735.72;5045479;28;20203;-71
2022/04/28 08:24:33;;;;;;;17.90;8.90;;;;;;;16.48;56.12;101730.28;5048056;28;20201;-71
2022/04/28 08:27:03;;;;;;;14.10;9.83;;;;;;;16.59;55.79;101734.56;5047072;28;20212;-70
2022/04/28 08:29:33;;;;;;;14.87;9.33;;;;;;;16.70;56.24;101732.50;5048489;28;20295;-70
2022/04/28 08:32:01;;;;;;;13.20;8.97;;;;;;;16.76;55.80;101731.84;5045727;28;20204;-71
2022/04/28 08:34:29;;;;;;;14.90;8.53;;;;;;;16.93;55.43;101725.59;5043543;28;20209;-71
2022/04/28 08:36:58;;;;;;;11.73;8.03;;;;;;;17.07;54.71;101724.16;5047859;28;20338;-70
2022/04/28 08:39:30;;;;;;;13.73;8.60;;;;;;;17.16;53.90;101738.44;5044555;28;20613;-70
2022/04/28 08:42:00;;;;;;;14.80;8.80;;;;;;;17.25;53.50;101729.44;5045828;28;20505;-71
2022/04/28 08:44:29;;;;;;;11.00;8.07;;;;;;;17.28;52.27;101737.16;5047154;28;20200;-71
2022/04/28 08:46:59;;;;;;;13.27;7.87;;;;;;;17.46;51.76;101737.06;5044166;28;20874;-71
2022/04/28 08:49:29;;;;;;;12.23;8.07;;;;;;;17.47;50.38;101742.25;5045397;28;20283;-71
2022/04/28 08:51:59;;;;;;;14.87;7.90;;;;;;;17.59;50.27;101740.13;5046776;28;20201;-71
2022/04/28 08:54:28;;;;;;;10.40;7.80;;;;;;;17.72;50.28;101737.00;5048214;28;20212;-71
2022/04/28 08:56:58;;;;;;;11.33;8.03;;;;;;;17.80;51.01;101734.34;5045838;28;20212;-71
2022/04/28 08:59:26;;;;;;;8.97;7.40;;;;;;;17.93;50.53;101737.38;5046233;28;20262;-71
2022/04/28 09:01:54;;;;;;;10.83;7.50;;;;;;;17.92;51.13;101736.53;5046951;28;20209;-71
2022/04/28 09:04:23;;;;;;;15.27;7.80;;;;;;;18.07;49.67;101743.94;5047051;28;20253;-71
2022/04/28 09:06:53;;;;;;;12.93;6.90;;;;;;;18.27;49.39;101745.31;5045554;28;20208;-69
2022/04/28 09:09:24;;;;;;;7.73;5.20;;;;;;;18.38;46.80;101743.09;5052412;28;20685;-68
2022/04/28 09:11:53;;;;;;;6.97;4.60;;;;;;;18.50;45.31;101738.22;5041476;28;20208;-70
2022/04/28 09:14:23;;;;;;;7.90;4.93;;;;;;;18.55;45.12;101737.75;5041180;28;20234;-70
2022/04/28 09:16:58;;;;;;;11.87;5.67;;;;;;;18.55;46.71;101741.28;5038603;28;20655;-67
2022/04/28 09:19:28;;;;;;;9.47;4.93;;;;;;;18.69;45.83;101737.06;5043000;28;20262;-67
2022/04/28 09:22:00;;;;;;;6.40;5.00;;;;;;;18.79;45.56;101735.03;5041801;28;20213;-69
2022/04/28 09:24:32;;;;;;;8.83;5.20;;;;;;;18.83;45.79;101733.66;5039461;28;20245;-67
2022/04/28 09:27:01;;;;;;;7.80;5.50;;;;;;;18.89;45.71;101730.31;5025530;28;20204;-70
2022/04/28 09:29:33;;;;;;;7.07;5.60;;;;;;;19.00;46.13;101737.16;5026377;28;20208;-69
2022/04/28 09:32:02;;;;;;;9.33;5.90;;;;;;;19.10;45.71;101733.25;5033439;28;20231;-68
2022/04/28 09:34:52;;;;;;;10.27;5.33;;;;;;;19.26;44.62;101728.84;5028733;28;20848;-69
2022/04/28 09:37:26;;;;;;;11.00;6.10;;;;;;;19.36;44.54;101724.91;5025421;28;20216;-71
2022/04/28 09:42:42;;;;;;;12.53;6.17;;;;;;;19.45;45.38;101729.25;5026273;28;20206;-70
2022/04/28 09:45:15;;;;;;;8.53;6.53;;;;;;;19.56;44.89;101722.69;5026403;28;20252;-69
2022/04/28 09:47:46;;;;;;;11.63;5.47;;;;;;;19.69;43.30;101717.56;5020709;28;20239;-68
2022/04/28 09:50:14;;;;;;;8.30;5.53;;;;;;;19.68;42.15;101715.91;5022761;28;20212;-70
2022/04/28 09:52:44;;;;;;;10.23;5.20;;;;;;;19.68;42.25;101710.50;5020150;28;20220;-70
2022/04/28 09:55:15;;;;;;;10.90;4.70;;;;;;;19.75;42.18;101722.22;5022244;28;20211;-68
2022/04/28 09:57:44;;;;;;;9.33;4.60;;;;;;;19.84;43.04;101714.94;5022076;28;20684;-71
2022/04/28 10:00:13;;;;;;;6.53;4.00;;;;;;;19.99;41.02;101721.22;5025620;28;20204;-72
2022/04/28 10:02:41;;;;;;;9.10;4.50;;;;;;;20.15;40.16;101717.56;5022851;28;20679;-72
2022/04/28 10:05:09;;;;;;;5.57;4.10;;;;;;;20.27;40.50;101713.44;5022414;28;20208;-71
2022/04/28 10:07:37;;;;;;;6.13;3.10;;;;;;;20.35;38.78;101718.78;5025338;28;20395;-71
2022/04/28 10:10:07;;;;;;;5.47;3.23;;;;;;;20.46;39.19;101712.13;5029070;28;20680;-71
2022/04/28 10:12:37;;;;;;;5.47;3.77;;;;;;;20.58;39.18;101706.09;5017933;28;20205;-71
2022/04/28 10:15:06;;;;;;;8.93;3.77;;;;;;;20.71;39.09;101713.56;5024383;28;20201;-71
2022/04/28 10:17:41;;;;;;;5.80;3.60;;;;;;;20.78;38.32;101710.94;5025366;28;20230;-71
2022/04/28 10:20:13;;;;;;;7.57;4.03;;;;;;;21.06;38.26;101713.84;5029938;28;20245;-71
2022/04/28 10:23:06;;;;;;;9.27;4.70;;;;;;;21.15;38.09;101710.84;5026425;28;20219;-71
2022/04/28 10:34:11;;;;;;;4.90;3.70;;;;;;;21.52;36.41;101707.19;5029165;28;20211;-67
2022/04/28 10:36:53;;;;;;;5.97;4.00;;;;;;;21.62;36.58;101706.91;5029809;28;20308;-68
2022/04/28 10:39:38;;;;;;;5.67;4.10;;;;;;;21.74;36.09;101705.34;5034243;28;20628;-68
2022/04/28 10:42:21;;;;;;;7.78;4.25;;;;;;;21.87;36.18;101700.09;5033146;28;20209;-69
2022/04/28 10:44:54;;;;;;;7.28;4.03;;;;;;;21.98;36.07;101696.09;5025690;28;20211;-69
2022/04/28 10:47:24;;;;;;;9.30;4.10;;;;;;;22.20;36.52;101686.09;5033611;28;20236;-69
2022/04/28 10:49:53;;;;;;;5.10;4.03;;;;;;;22.36;35.78;101689.34;5036067;28;20642;-69
2022/04/28 10:52:22;;;;;;;7.50;3.47;;;;;;;22.47;35.41;101691.50;5025973;28;20252;-69
2022/04/28 10:54:53;;;;;;;7.90;4.15;;;;;;;22.61;35.35;101695.13;5031541;28;20215;-70
2022/04/28 10:57:29;;;;;;;7.63;4.35;;;;;;;22.77;35.77;101692.19;5030037;28;20308;-70
2022/04/28 11:00:02;;;;;;;6.15;3.72;;;;;;;22.89;35.34;101689.72;5034060;28;20217;-70
2022/04/28 11:02:43;;;;;;;6.78;4.03;;;;;;;23.09;33.97;101687.13;5027309;28;20201;-71
2022/04/28 11:05:32;;;;;;;9.38;4.80;;;;;;;23.12;34.61;101687.59;5030733;28;20565;-70
2022/04/28 11:08:01;;;;;;;7.53;3.88;;;;;;;23.20;35.16;101689.28;5030652;28;20666;-71
2022/04/28 11:10:29;;;;;;;12.23;4.35;;;;;;;23.34;34.61;101680.16;5036533;28;20721;-69
2022/04/28 11:12:57;;;;;;;6.25;4.00;;;;;;;23.49;33.69;101682.72;5029684;28;20211;-71
2022/04/28 11:15:39;;;;;;;6.40;3.63;;;;;;;23.72;33.16;101674.25;5026564;28;20215;-71
2022/04/28 11:18:08;;;;;;;5.45;3.75;;;;;;;23.79;32.13;101675.09;5029882;28;20198;-71
2022/04/28 11:20:39;;;;;;;7.95;3.88;;;;;;;23.69;31.79;101680.09;5026019;28;20211;-71
2022/04/28 11:23:07;;;;;;;5.13;3.80;;;;;;;23.46;33.17;101678.53;5027553;28;20308;-71
2022/04/28 11:25:35;;;;;;;6.05;3.10;;;;;;;23.36;33.25;101678.09;5026217;28;20206;-71
2022/04/28 11:28:03;;;;;;;4.28;3.15;;;;;;;23.36;33.12;101680.81;5031805;28;20222;-71
2022/04/28 11:30:33;;;;;;;5.60;3.85;;;;;;;23.61;32.57;101676.53;5027851;28;20205;-71
2022/04/28 11:33:01;;;;;;;19.30;14.57;;;;;;;23.92;32.51;101667.00;5026728;28;20865;-71
2022/04/28 11:35:36;;;;;;;7.90;5.18;;;;;;;24.26;31.42;101668.72;5032839;28;20212;-70
2022/04/28 11:38:05;;;;;;;13.63;4.30;;;;;;;24.47;30.65;101662.22;5029324;28;20322;-70
2022/04/28 11:40:42;;;;;;;6.85;3.17;;;;;;;24.62;30.79;101666.38;5032299;28;20208;-70
2022/04/28 11:43:10;;;;;;;4.53;3.58;;;;;;;24.56;30.63;101661.78;5027314;28;20220;-70
2022/04/28 11:45:40;;;;;;;4.13;3.00;;;;;;;24.25;30.54;101657.03;5027368;28;20680;-71
2022/04/28 11:48:08;;;;;;;4.85;3.42;;;;;;;23.88;30.25;101652.19;5028897;28;20587;-71
2022/04/28 11:50:42;;;;;;;6.43;3.03;;;;;;;23.56;31.30;101654.66;5027327;28;20208;-71
2022/04/28 11:53:12;;;;;;;10.23;3.35;;;;;;;23.30;31.17;101651.03;5038548;28;20236;-71
2022/04/28 11:55:42;;;;;;;4.60;2.65;;;;;;;23.05;30.71;101653.38;5032380;28;20201;-70
2022/04/28 11:58:13;;;;;;;4.47;3.03;;;;;;;22.75;31.20;101642.88;5026655;28;20256;-70
2022/04/28 12:00:45;;;;;;;6.35;2.95;;;;;;;22.52;31.89;101639.56;5030356;28;20212;-71
2022/04/28 12:03:23;;;;;;;7.15;2.90;;;;;;;22.25;32.65;101645.84;5027675;28;20312;-70